Time;durP1;ratioP1;P1;durP2;ratioP2;P2;SDS_P1;SDS_P2;PMS_P1;PMS_P2;Temp;Humidity;BMP_temperature;BMP_pressure;BME280_temperature;BME280_humidity;BME280_pressure;Samples;Min_cycle;Max_cycle;Signal;HPM_P1;HPM_P2
2021/03/14 00:01:22;;;;;;;0.60;0.60;;;;;;;;;;4957473;29;20243;-76
2021/03/14 00:03:48;;;;;;;3.60;0.73;;;;;;;;;;4957662;29;20214;-77
2021/03/14 00:06:14;;;;;;;1.57;0.50;;;;;;;;;;4957601;29;20415;-77
2021/03/14 00:08:40;;;;;;;0.47;0.37;;;;;;;;;;4957578;29;20455;-77
2021/03/14 00:11:07;;;;;;;1.52;0.50;;;;;;;;;;4957516;29;20529;-76
2021/03/14 00:13:34;;;;;;;0.93;0.43;;;;;;;;;;4956732;29;20327;-77
2021/03/14 00:16:01;;;;;;;1.50;0.50;;;;;;;;;;4957284;29;20172;-77
2021/03/14 00:18:39;;;;;;;0.50;0.50;;;;;;;;;;4956984;29;20203;-77
2021/03/14 00:21:05;;;;;;;0.38;0.38;;;;;;;;;;4957215;29;20255;-76
2021/03/14 00:23:32;;;;;;;1.80;0.57;;;;;;;;;;4957202;29;20168;-77
2021/03/14 00:29:01;;;;;;;0.50;0.47;;;;;;;;;;4956656;28;20191;-77
2021/03/14 00:31:27;;;;;;;0.40;0.20;;;;;;;;;;4956951;29;20172;-76
2021/03/14 00:33:53;;;;;;;1.58;0.30;;;;;;;;;;4956905;29;20908;-76
2021/03/14 00:36:19;;;;;;;0.70;0.57;;;;;;;;;;4956968;29;20264;-76
2021/03/14 00:38:45;;;;;;;0.90;0.50;;;;;;;;;;4957016;29;20450;-77
2021/03/14 00:41:11;;;;;;;3.30;0.40;;;;;;;;;;4956901;29;20431;-75
2021/03/14 00:43:37;;;;;;;0.50;0.40;;;;;;;;;;4956989;29;20511;-75
2021/03/14 00:46:04;;;;;;;0.52;0.40;;;;;;;;;;4939675;29;20274;-76
2021/03/14 00:48:30;;;;;;;0.40;0.28;;;;;;;;;;4956680;29;20168;-76
2021/03/14 00:50:56;;;;;;;1.33;0.40;;;;;;;;;;4956696;29;20202;-75
2021/03/14 00:53:22;;;;;;;0.50;0.50;;;;;;;;;;4956443;29;20228;-75
2021/03/14 00:58:51;;;;;;;0.30;0.20;;;;;;;;;;4956343;29;20588;-75
2021/03/14 01:01:17;;;;;;;0.73;0.30;;;;;;;;;;4956443;29;20647;-75
2021/03/14 01:03:43;;;;;;;0.60;0.43;;;;;;;;;;4956505;29;20183;-76
2021/03/14 01:06:10;;;;;;;0.47;0.37;;;;;;;;;;4956572;29;20172;-76
2021/03/14 01:08:36;;;;;;;0.40;0.25;;;;;;;;;;4956519;29;20412;-75
2021/03/14 01:14:06;;;;;;;0.40;0.20;;;;;;;;;;4955850;29;20717;-75
2021/03/14 01:16:32;;;;;;;0.88;0.55;;;;;;;;;;4938867;29;20187;-77
2021/03/14 01:18:58;;;;;;;0.30;0.20;;;;;;;;;;4956354;29;20174;-76
2021/03/14 01:21:24;;;;;;;0.70;0.40;;;;;;;;;;4956337;29;20172;-76
2021/03/14 01:23:50;;;;;;;0.40;0.30;;;;;;;;;;4956182;29;20215;-76
2021/03/14 01:29:20;;;;;;;0.40;0.30;;;;;;;;;;4956136;29;20179;-75
2021/03/14 01:31:46;;;;;;;0.43;0.38;;;;;;;;;;4955752;29;20180;-76
2021/03/14 01:34:12;;;;;;;0.40;0.20;;;;;;;;;;4956185;29;20219;-76
2021/03/14 01:36:38;;;;;;;0.40;0.30;;;;;;;;;;4956102;29;20408;-76
2021/03/14 01:39:04;;;;;;;0.65;0.28;;;;;;;;;;4955768;28;20265;-76
2021/03/14 01:41:30;;;;;;;0.45;0.45;;;;;;;;;;4955445;29;20239;-78
2021/03/14 01:43:57;;;;;;;0.63;0.50;;;;;;;;;;4955916;29;20658;-77
2021/03/14 01:46:23;;;;;;;0.52;0.30;;;;;;;;;;4955737;29;20176;-76
2021/03/14 01:48:49;;;;;;;0.68;0.30;;;;;;;;;;4955716;29;20203;-75
2021/03/14 01:51:15;;;;;;;0.65;0.40;;;;;;;;;;4955620;29;20182;-76
2021/03/14 01:53:41;;;;;;;0.50;0.20;;;;;;;;;;4955512;29;20215;-76
2021/03/14 01:59:11;;;;;;;0.30;0.20;;;;;;;;;;4955418;29;20226;-77
2021/03/14 02:01:37;;;;;;;0.60;0.20;;;;;;;;;;4955014;29;20590;-78
2021/03/14 02:04:03;;;;;;;0.30;0.20;;;;;;;;;;4937927;29;20203;-76
2021/03/14 02:06:29;;;;;;;0.30;0.25;;;;;;;;;;4955402;29;20180;-75
2021/03/14 02:08:55;;;;;;;0.30;0.20;;;;;;;;;;4938110;29;20235;-76
2021/03/14 02:14:25;;;;;;;1.98;0.30;;;;;;;;;;4954912;29;20238;-76
2021/03/14 02:16:51;;;;;;;0.40;0.20;;;;;;;;;;4955023;29;20172;-76
2021/03/14 02:19:20;;;;;;;0.40;0.20;;;;;;;;;;4955216;29;20176;-75
2021/03/14 02:21:46;;;;;;;0.30;0.20;;;;;;;;;;4955345;29;20171;-78
2021/03/14 02:30:21;;;;;;;2.15;0.30;;;;;;;;;;4955237;29;20218;-76
2021/03/14 02:32:48;;;;;;;0.85;0.30;;;;;;;;;;4954764;29;20200;-76
2021/03/14 02:35:15;;;;;;;0.50;0.35;;;;;;;;;;4937822;29;20194;-77
2021/03/14 02:37:41;;;;;;;0.40;0.30;;;;;;;;;;4953071;29;20232;-77
2021/03/14 02:40:08;;;;;;;0.50;0.32;;;;;;;;;;4954752;29;20199;-75
2021/03/14 02:42:35;;;;;;;0.50;0.47;;;;;;;;;;4954711;29;20168;-77
2021/03/14 02:45:02;;;;;;;0.60;0.30;;;;;;;;;;4954852;29;20175;-76
2021/03/14 02:47:29;;;;;;;0.55;0.40;;;;;;;;;;4955031;29;20591;-77
2021/03/14 02:49:55;;;;;;;0.65;0.40;;;;;;;;;;4954858;29;20619;-75
2021/03/14 02:52:22;;;;;;;0.57;0.38;;;;;;;;;;4937432;29;20615;-75
2021/03/14 02:54:49;;;;;;;0.30;0.30;;;;;;;;;;4954644;29;20649;-76
2021/03/14 02:57:16;;;;;;;2.05;0.60;;;;;;;;;;4954471;29;20259;-76
2021/03/14 02:59:42;;;;;;;0.60;0.30;;;;;;;;;;4954656;29;20172;-76
2021/03/14 03:02:09;;;;;;;0.30;0.20;;;;;;;;;;4954504;29;20183;-78
2021/03/14 03:04:35;;;;;;;0.40;0.30;;;;;;;;;;4954887;29;20232;-76
2021/03/14 03:07:01;;;;;;;0.50;0.30;;;;;;;;;;4954859;29;20271;-78
2021/03/14 03:09:27;;;;;;;0.30;0.25;;;;;;;;;;4954938;29;20176;-76
2021/03/14 03:14:56;;;;;;;0.30;0.20;;;;;;;;;;4954571;29;20226;-76
2021/03/14 03:17:24;;;;;;;1.50;0.30;;;;;;;;;;4954536;29;20179;-76
2021/03/14 03:19:51;;;;;;;0.98;0.32;;;;;;;;;;4954554;29;20179;-75
2021/03/14 03:22:17;;;;;;;0.40;0.30;;;;;;;;;;4954597;29;20171;-76
2021/03/14 03:24:43;;;;;;;0.30;0.30;;;;;;;;;;4954482;29;20200;-76
2021/03/14 03:27:09;;;;;;;0.40;0.30;;;;;;;;;;4954201;29;20182;-75
2021/03/14 03:29:35;;;;;;;0.63;0.47;;;;;;;;;;4954575;29;20180;-75
2021/03/14 03:32:01;;;;;;;0.45;0.38;;;;;;;;;;4954279;29;20624;-77
2021/03/14 03:34:27;;;;;;;0.60;0.27;;;;;;;;;;4937445;29;20215;-74
2021/03/14 03:36:53;;;;;;;0.60;0.43;;;;;;;;;;4954698;29;20419;-77
2021/03/14 03:39:20;;;;;;;0.57;0.43;;;;;;;;;;4954191;29;20431;-75
2021/03/14 03:44:50;;;;;;;2.40;0.95;;;;;;;;;;4954383;29;20238;-75
2021/03/14 03:47:16;;;;;;;1.20;1.05;;;;;;;;;;4954234;29;20615;-76
2021/03/14 03:49:44;;;;;;;1.55;0.70;;;;;;;;;;4954131;29;20168;-75
2021/03/14 03:52:11;;;;;;;1.38;0.60;;;;;;;;;;4954016;29;20279;-76
2021/03/14 03:54:37;;;;;;;1.05;0.40;;;;;;;;;;4936793;29;20216;-77
2021/03/14 04:00:08;;;;;;;0.50;0.50;;;;;;;;;;4954109;29;20202;-75
2021/03/14 04:02:35;;;;;;;0.63;0.63;;;;;;;;;;4954030;28;20255;-75
2021/03/14 04:05:02;;;;;;;0.57;0.50;;;;;;;;;;4957537;29;20168;-75
2021/03/14 04:07:29;;;;;;;0.40;0.40;;;;;;;;;;4957675;29;20194;-76
2021/03/14 04:09:55;;;;;;;0.50;0.50;;;;;;;;;;4957113;29;20199;-76
2021/03/14 04:12:21;;;;;;;0.40;0.40;;;;;;;;;;4956854;29;20176;-77
2021/03/14 04:14:48;;;;;;;0.50;0.50;;;;;;;;;;4957124;29;20242;-78
2021/03/14 04:17:14;;;;;;;0.55;0.50;;;;;;;;;;4957276;29;20174;-77
2021/03/14 04:19:40;;;;;;;0.60;0.60;;;;;;;;;;4957389;29;20168;-77
2021/03/14 04:22:07;;;;;;;0.63;0.52;;;;;;;;;;4957124;29;20415;-75
2021/03/14 04:24:33;;;;;;;0.50;0.50;;;;;;;;;;4957532;29;20172;-78
2021/03/14 04:30:04;;;;;;;0.60;0.60;;;;;;;;;;4957570;29;20744;-76
2021/03/14 04:32:30;;;;;;;0.70;0.60;;;;;;;;;;4956900;29;20180;-76
2021/03/14 04:34:56;;;;;;;0.68;0.38;;;;;;;;;;4957555;29;20200;-76
2021/03/14 04:37:23;;;;;;;0.88;0.88;;;;;;;;;;4957106;29;20619;-75
2021/03/14 04:39:49;;;;;;;0.80;0.60;;;;;;;;;;4957015;29;20223;-76
2021/03/14 04:45:19;;;;;;;0.60;0.60;;;;;;;;;;4956960;29;20183;-75
2021/03/14 04:47:46;;;;;;;0.57;0.57;;;;;;;;;;4956875;29;20499;-78
2021/03/14 04:50:13;;;;;;;1.08;0.70;;;;;;;;;;4956888;29;20183;-77
2021/03/14 04:52:39;;;;;;;0.65;0.45;;;;;;;;;;4956342;29;20172;-77
2021/03/14 04:55:06;;;;;;;0.70;0.57;;;;;;;;;;4956627;29;20534;-77
2021/03/14 04:57:32;;;;;;;0.82;0.68;;;;;;;;;;4956176;29;20633;-77
2021/03/14 05:00:00;;;;;;;0.60;0.60;;;;;;;;;;4956669;29;20175;-76
2021/03/14 05:02:27;;;;;;;0.65;0.65;;;;;;;;;;4938959;29;20710;-76
2021/03/14 05:04:53;;;;;;;0.40;0.38;;;;;;;;;;4956525;29;20595;-75
2021/03/14 05:07:20;;;;;;;0.52;0.50;;;;;;;;;;4956545;29;20171;-75
2021/03/14 05:09:46;;;;;;;0.40;0.30;;;;;;;;;;4956396;29;20219;-77
2021/03/14 05:15:17;;;;;;;0.57;0.50;;;;;;;;;;4956709;28;20255;-76
2021/03/14 05:17:44;;;;;;;0.68;0.32;;;;;;;;;;4955993;29;20570;-76
2021/03/14 05:20:12;;;;;;;2.05;0.60;;;;;;;;;;4956287;29;20188;-77
2021/03/14 05:22:38;;;;;;;0.73;0.60;;;;;;;;;;4956049;29;20172;-76
2021/03/14 05:25:06;;;;;;;0.70;0.50;;;;;;;;;;4956106;29;20168;-78
2021/03/14 05:30:36;;;;;;;1.42;0.43;;;;;;;;;;4956228;29;20179;-77
2021/03/14 05:33:02;;;;;;;1.15;0.35;;;;;;;;;;4955433;29;20275;-75
2021/03/14 05:35:29;;;;;;;0.50;0.32;;;;;;;;;;4955740;29;20175;-75
2021/03/14 05:37:56;;;;;;;1.30;0.30;;;;;;;;;;4955774;29;20623;-76
2021/03/14 05:40:23;;;;;;;1.30;0.50;;;;;;;;;;4955638;29;20175;-75
2021/03/14 05:42:50;;;;;;;0.40;0.30;;;;;;;;;;4955518;29;20627;-75
2021/03/14 05:45:16;;;;;;;0.40;0.30;;;;;;;;;;4955860;29;20175;-77
2021/03/14 05:47:42;;;;;;;0.50;0.50;;;;;;;;;;4955388;29;20160;-76
2021/03/14 05:50:10;;;;;;;0.97;0.50;;;;;;;;;;4956636;29;20172;-76
2021/03/14 05:52:38;;;;;;;0.82;0.40;;;;;;;;;;4956136;29;20475;-78
2021/03/14 05:55:05;;;;;;;0.50;0.40;;;;;;;;;;4955688;29;20230;-77
2021/03/14 06:00:34;;;;;;;0.50;0.50;;;;;;;;;;4955492;29;20168;-78
2021/03/14 06:03:01;;;;;;;0.70;0.70;;;;;;;;;;4938281;29;20629;-77
2021/03/14 06:05:28;;;;;;;0.40;0.40;;;;;;;;;;4955697;29;20214;-77
2021/03/14 06:07:54;;;;;;;3.72;0.70;;;;;;;;;;4955528;29;20250;-78
2021/03/14 06:10:20;;;;;;;0.98;0.70;;;;;;;;;;4955134;29;20172;-77
2021/03/14 06:15:50;;;;;;;1.25;0.85;;;;;;;;;;4955874;29;20708;-78
2021/03/14 06:18:17;;;;;;;1.05;0.70;;;;;;;;;;4955456;29;20227;-78
2021/03/14 06:20:44;;;;;;;1.13;0.70;;;;;;;;;;4955081;29;20583;-75
2021/03/14 06:23:10;;;;;;;2.15;0.88;;;;;;;;;;4955218;29;20255;-77
2021/03/14 06:25:36;;;;;;;2.40;0.90;;;;;;;;;;4954732;28;20598;-76
2021/03/14 06:28:02;;;;;;;0.80;0.60;;;;;;;;;;4954967;29;20419;-74
2021/03/14 06:30:30;;;;;;;2.47;0.70;;;;;;;;;;4955280;29;20540;-77
2021/03/14 06:33:09;;;;;;;0.77;0.68;;;;;;;;;;4954457;29;20626;-77
2021/03/14 06:35:38;;;;;;;0.80;0.80;;;;;;;;;;4955223;29;20211;-77
2021/03/14 06:38:17;;;;;;;0.98;0.98;;;;;;;;;;4955049;29;20179;-76
2021/03/14 06:40:43;;;;;;;1.80;0.95;;;;;;;;;;4954994;29;20190;-75
2021/03/14 06:43:12;;;;;;;0.77;0.77;;;;;;;;;;4954927;29;20702;-78
2021/03/14 06:45:40;;;;;;;6.88;1.52;;;;;;;;;;4955095;29;20179;-80
2021/03/14 06:48:07;;;;;;;0.88;0.70;;;;;;;;;;4954678;29;20168;-78
2021/03/14 06:50:32;;;;;;;2.78;1.42;;;;;;;;;;4938017;29;20187;-77
2021/03/14 06:53:08;;;;;;;2.17;1.07;;;;;;;;;;4954487;29;20266;-78
2021/03/14 06:55:35;;;;;;;2.40;0.93;;;;;;;;;;4954336;29;20411;-75
2021/03/14 07:01:12;;;;;;;3.33;1.30;;;;;;;;;;4954559;29;20219;-77
2021/03/14 07:03:39;;;;;;;1.13;1.00;;;;;;;;;;4954315;29;20709;-78
2021/03/14 07:06:24;;;;;;;3.60;1.00;;;;;;;;;;4954373;29;20164;-77
2021/03/14 07:08:52;;;;;;;0.95;0.70;;;;;;;;;;4954182;29;20180;-73
2021/03/14 07:11:37;;;;;;;1.30;1.20;;;;;;;;;;4954342;29;20194;-76
2021/03/14 07:14:04;;;;;;;1.33;1.20;;;;;;;;;;4953830;29;20243;-78
2021/03/14 07:16:59;;;;;;;1.05;1.00;;;;;;;;;;4954741;29;20290;-76
2021/03/14 07:19:32;;;;;;;1.60;1.00;;;;;;;;;;4945758;29;20632;-75
2021/03/14 07:22:01;;;;;;;1.10;1.10;;;;;;;;;;4954306;29;20172;-79
2021/03/14 07:24:39;;;;;;;3.38;1.00;;;;;;;;;;4954542;29;20177;-77
2021/03/14 07:27:06;;;;;;;2.38;1.10;;;;;;;;;;4954510;29;20256;-77
2021/03/14 07:29:34;;;;;;;3.22;1.40;;;;;;;;;;4954491;29;20172;-78
2021/03/14 07:32:01;;;;;;;1.73;1.10;;;;;;;;;;4954409;29;20193;-76
2021/03/14 07:34:27;;;;;;;1.30;1.05;;;;;;;;;;4954527;29;20243;-75
2021/03/14 07:36:53;;;;;;;4.07;1.33;;;;;;;;;;4955243;28;20635;-78
2021/03/14 07:39:19;;;;;;;3.00;1.35;;;;;;;;;;4958214;29;20181;-79
2021/03/14 07:41:46;;;;;;;1.35;1.10;;;;;;;;;;4958690;29;20166;-78
2021/03/14 07:44:12;;;;;;;1.70;1.13;;;;;;;;;;4958419;29;20182;-76
2021/03/14 07:46:41;;;;;;;2.90;1.45;;;;;;;;;;4958627;29;20658;-79
2021/03/14 07:49:07;;;;;;;1.88;1.55;;;;;;;;;;4958496;29;20514;-77
2021/03/14 07:51:34;;;;;;;4.38;1.20;;;;;;;;;;4958401;29;20181;-79
2021/03/14 07:54:02;;;;;;;8.38;1.00;;;;;;;;;;4958258;29;20236;-78
2021/03/14 07:56:37;;;;;;;2.47;1.08;;;;;;;;;;4941237;29;20538;-77
2021/03/14 07:59:03;;;;;;;1.20;1.10;;;;;;;;;;4957944;29;20644;-78
2021/03/14 08:01:34;;;;;;;1.83;1.20;;;;;;;;;;4957656;29;20172;-78
2021/03/14 08:04:01;;;;;;;2.05;0.90;;;;;;;;;;4958025;29;20199;-76
2021/03/14 08:06:45;;;;;;;1.48;1.02;;;;;;;;;;4957838;29;20173;-77
2021/03/14 08:09:31;;;;;;;2.17;1.25;;;;;;;;;;4957736;29;20179;-77
2021/03/14 08:12:16;;;;;;;2.50;1.50;;;;;;;;;;4956645;29;20197;-75
2021/03/14 08:14:44;;;;;;;2.97;1.45;;;;;;;;;;4957171;29;20331;-74
2021/03/14 08:17:14;;;;;;;3.55;1.17;;;;;;;;;;4956893;29;20164;-74
2021/03/14 08:19:40;;;;;;;2.30;1.30;;;;;;;;;;4957002;29;20214;-76
2021/03/14 08:22:06;;;;;;;2.30;1.38;;;;;;;;;;4957178;29;20208;-76
2021/03/14 08:24:33;;;;;;;3.30;1.03;;;;;;;;;;4957075;29;20210;-77
2021/03/14 08:27:08;;;;;;;2.15;0.93;;;;;;;;;;4956701;29;20419;-75
2021/03/14 08:29:42;;;;;;;4.30;1.33;;;;;;;;;;4956949;29;20200;-76
2021/03/14 08:32:21;;;;;;;2.93;1.17;;;;;;;;;;4956672;29;20419;-77
2021/03/14 08:34:47;;;;;;;2.93;1.13;;;;;;;;;;4956994;29;20482;-78
2021/03/14 08:37:25;;;;;;;2.97;1.20;;;;;;;;;;4957212;29;20442;-77
2021/03/14 08:39:58;;;;;;;4.23;0.97;;;;;;;;;;4957012;29;20412;-77
2021/03/14 08:42:44;;;;;;;1.90;0.87;;;;;;;;;;4956403;29;20412;-75
2021/03/14 08:45:26;;;;;;;0.90;0.90;;;;;;;;;;4956396;29;20440;-77
2021/03/14 08:47:52;;;;;;;1.27;0.70;;;;;;;;;;4956084;29;20423;-75
2021/03/14 08:50:19;;;;;;;2.80;1.40;;;;;;;;;;4956165;28;20733;-77
2021/03/14 08:52:45;;;;;;;1.20;1.10;;;;;;;;;;4956363;29;20889;-77
2021/03/14 08:55:12;;;;;;;4.23;1.43;;;;;;;;;;4956360;29;20420;-75
2021/03/14 08:57:38;;;;;;;2.30;0.70;;;;;;;;;;4956187;29;20427;-76
2021/03/14 09:00:05;;;;;;;2.53;0.70;;;;;;;;;;4956313;29;20423;-77
2021/03/14 09:02:32;;;;;;;2.33;1.30;;;;;;;;;;4939022;29;20424;-76
2021/03/14 09:05:17;;;;;;;1.37;1.10;;;;;;;;;;4956217;29;20427;-76
2021/03/14 09:07:44;;;;;;;3.43;0.80;;;;;;;;;;4956313;29;20415;-79
2021/03/14 09:10:17;;;;;;;1.93;0.83;;;;;;;;;;4956197;29;20428;-76
2021/03/14 09:12:43;;;;;;;3.72;1.00;;;;;;;;;;4955720;29;20408;-76
2021/03/14 09:15:11;;;;;;;4.45;0.80;;;;;;;;;;4955408;29;20242;-77
2021/03/14 09:17:38;;;;;;;1.77;0.60;;;;;;;;;;4955792;29;20176;-75
2021/03/14 09:20:04;;;;;;;1.77;0.77;;;;;;;;;;4956590;29;20186;-77
2021/03/14 09:22:34;;;;;;;0.70;0.57;;;;;;;;;;4956275;29;20572;-77
2021/03/14 09:25:01;;;;;;;3.70;1.42;;;;;;;;;;4956258;29;20275;-76
2021/03/14 09:27:34;;;;;;;1.10;0.95;;;;;;;;;;4952318;29;20557;-77
2021/03/14 09:30:02;;;;;;;4.13;1.17;;;;;;;;;;4954691;29;20175;-76
2021/03/14 09:32:31;;;;;;;8.60;1.00;;;;;;;;;;4954613;29;20260;-75
2021/03/14 09:35:09;;;;;;;3.00;1.02;;;;;;;;;;4954792;29;20214;-79
2021/03/14 09:37:36;;;;;;;3.75;1.00;;;;;;;;;;4954953;29;20179;-76
2021/03/14 09:40:12;;;;;;;1.88;0.82;;;;;;;;;;4955060;29;20182;-78
2021/03/14 09:42:39;;;;;;;3.25;1.13;;;;;;;;;;4954459;29;20174;-75
2021/03/14 09:45:05;;;;;;;1.17;0.60;;;;;;;;;;4954743;29;20175;-77
2021/03/14 09:47:31;;;;;;;0.70;0.60;;;;;;;;;;4954594;29;20581;-77
2021/03/14 09:50:08;;;;;;;1.00;0.60;;;;;;;;;;4954628;29;20298;-76
2021/03/14 09:52:35;;;;;;;2.88;0.70;;;;;;;;;;4954543;29;20446;-76
2021/03/14 09:55:01;;;;;;;4.03;0.57;;;;;;;;;;4954338;29;20222;-77
2021/03/14 09:57:27;;;;;;;0.63;0.63;;;;;;;;;;4953985;29;20172;-76
2021/03/14 09:59:57;;;;;;;0.90;0.70;;;;;;;;;;4954052;28;20496;-77
2021/03/14 10:02:24;;;;;;;1.03;0.60;;;;;;;;;;4953893;29;20976;-75
2021/03/14 10:04:50;;;;;;;0.90;0.60;;;;;;;;;;4954518;29;20493;-75
2021/03/14 10:07:23;;;;;;;1.90;0.80;;;;;;;;;;4954553;29;20737;-76
2021/03/14 10:09:49;;;;;;;2.23;0.77;;;;;;;;;;4954151;29;20418;-76
2021/03/14 10:12:15;;;;;;;1.20;0.80;;;;;;;;;;4954036;29;20512;-74
2021/03/14 10:14:41;;;;;;;0.80;0.70;;;;;;;;;;4954062;29;20585;-75
2021/03/14 10:17:08;;;;;;;2.00;0.77;;;;;;;;;;4954106;29;20429;-75
2021/03/14 10:19:34;;;;;;;1.23;0.80;;;;;;;;;;4954178;29;20920;-77
2021/03/14 10:22:00;;;;;;;1.27;0.50;;;;;;;;;;4954494;29;20750;-77
2021/03/14 10:24:27;;;;;;;0.70;0.50;;;;;;;;;;4953674;29;20426;-77
2021/03/14 10:26:54;;;;;;;1.77;1.37;;;;;;;;;;4953431;29;20507;-73
2021/03/14 10:29:21;;;;;;;4.10;1.43;;;;;;;;;;4953781;29;20431;-76
2021/03/14 10:31:48;;;;;;;4.53;0.73;;;;;;;;;;4954143;29;20427;-75
2021/03/14 10:34:18;;;;;;;1.13;0.60;;;;;;;;;;4953504;29;20483;-77
2021/03/14 10:36:44;;;;;;;0.60;0.60;;;;;;;;;;4953395;29;20457;-74
2021/03/14 10:39:10;;;;;;;4.50;0.83;;;;;;;;;;4952776;29;20427;-75
2021/03/14 10:41:44;;;;;;;0.93;0.77;;;;;;;;;;4953001;29;20918;-74
2021/03/14 10:47:16;;;;;;;2.55;0.93;;;;;;;;;;4953328;29;20425;-78
2021/03/14 10:49:42;;;;;;;2.33;0.63;;;;;;;;;;4953803;29;20183;-74
2021/03/14 10:52:13;;;;;;;3.30;0.77;;;;;;;;;;4954030;29;20452;-75
2021/03/14 10:54:39;;;;;;;1.95;0.75;;;;;;;;;;4953987;29;20211;-73
2021/03/14 10:57:14;;;;;;;1.10;0.83;;;;;;;;;;4954690;29;20254;-77
2021/03/14 10:59:41;;;;;;;3.07;0.87;;;;;;;;;;4955137;29;20426;-74
2021/03/14 11:02:18;;;;;;;1.13;0.63;;;;;;;;;;4954175;29;20451;-74
2021/03/14 11:04:54;;;;;;;2.60;0.50;;;;;;;;;;4953997;29;20505;-74
2021/03/14 11:07:23;;;;;;;2.33;1.57;;;;;;;;;;4953666;29;20423;-73
2021/03/14 11:09:49;;;;;;;1.50;0.73;;;;;;;;;;4953852;29;20507;-78
2021/03/14 11:12:31;;;;;;;1.17;0.60;;;;;;;;;;4955334;28;20422;-77
2021/03/14 11:14:57;;;;;;;0.90;0.73;;;;;;;;;;4940801;29;20494;-75
2021/03/14 11:17:28;;;;;;;1.53;0.87;;;;;;;;;;4957876;29;20428;-74
2021/03/14 11:19:54;;;;;;;3.33;0.70;;;;;;;;;;4957496;29;20895;-75
2021/03/14 11:22:21;;;;;;;2.80;0.90;;;;;;;;;;4957764;29;20427;-74
2021/03/14 11:24:47;;;;;;;5.43;0.97;;;;;;;;;;4957636;29;20439;-74
2021/03/14 11:27:15;;;;;;;1.93;0.73;;;;;;;;;;4957535;29;20894;-78
2021/03/14 11:29:42;;;;;;;2.20;1.23;;;;;;;;;;4957666;29;20835;-74
2021/03/14 11:32:13;;;;;;;2.80;0.80;;;;;;;;;;4957209;29;20442;-73
2021/03/14 11:34:41;;;;;;;1.30;0.93;;;;;;;;;;4940158;29;21113;-73
2021/03/14 11:37:08;;;;;;;2.17;0.80;;;;;;;;;;4957391;29;20752;-75
2021/03/14 11:39:35;;;;;;;0.60;0.60;;;;;;;;;;4940177;29;20436;-73
2021/03/14 11:42:02;;;;;;;1.00;0.60;;;;;;;;;;4957213;29;20423;-73
2021/03/14 11:47:32;;;;;;;2.40;1.07;;;;;;;;;;4956705;29;20467;-78
2021/03/14 11:50:01;;;;;;;5.73;0.90;;;;;;;;;;4956890;29;20420;-77
2021/03/14 11:52:29;;;;;;;2.93;0.80;;;;;;;;;;4956792;29;20419;-74
2021/03/14 11:54:56;;;;;;;2.57;0.70;;;;;;;;;;4956667;29;20566;-77
2021/03/14 11:57:22;;;;;;;1.27;0.70;;;;;;;;;;4956587;29;20423;-73
2021/03/14 11:59:49;;;;;;;1.90;1.17;;;;;;;;;;4956639;29;20511;-74
2021/03/14 12:02:16;;;;;;;6.90;1.03;;;;;;;;;;4956695;29;20423;-76
2021/03/14 12:04:43;;;;;;;2.90;0.80;;;;;;;;;;4956790;29;20868;-76
2021/03/14 12:07:10;;;;;;;1.67;1.07;;;;;;;;;;4956516;29;20451;-75
2021/03/14 12:09:36;;;;;;;3.43;1.23;;;;;;;;;;4956605;29;20745;-75
2021/03/14 12:12:05;;;;;;;1.63;0.90;;;;;;;;;;4956940;29;20816;-76
2021/03/14 12:17:35;;;;;;;1.90;0.70;;;;;;;;;;4956438;29;20426;-76
2021/03/14 12:20:02;;;;;;;2.07;0.80;;;;;;;;;;4956573;29;20427;-78
2021/03/14 12:22:29;;;;;;;4.93;0.70;;;;;;;;;;4956485;29;20442;-76
2021/03/14 12:24:55;;;;;;;1.30;0.60;;;;;;;;;;4955530;28;20774;-76
2021/03/14 12:27:22;;;;;;;1.38;0.68;;;;;;;;;;4956025;29;20200;-76
2021/03/14 12:32:54;;;;;;;6.47;1.30;;;;;;;;;;4956369;29;20171;-75
2021/03/14 12:35:21;;;;;;;2.30;0.90;;;;;;;;;;4955869;29;20183;-77
2021/03/14 12:37:48;;;;;;;6.25;1.02;;;;;;;;;;4956114;29;20180;-76
2021/03/14 12:40:15;;;;;;;1.67;1.23;;;;;;;;;;4955945;29;20648;-77
2021/03/14 12:42:41;;;;;;;1.55;0.85;;;;;;;;;;4956015;29;20638;-77
2021/03/14 12:45:09;;;;;;;5.35;1.25;;;;;;;;;;4955807;29;20175;-77
2021/03/14 12:47:36;;;;;;;3.00;1.60;;;;;;;;;;4955834;29;20177;-77
2021/03/14 12:50:04;;;;;;;1.35;0.90;;;;;;;;;;4955906;29;20186;-75
2021/03/14 12:52:31;;;;;;;4.65;1.20;;;;;;;;;;4955771;29;20179;-74
2021/03/14 12:54:58;;;;;;;1.90;0.80;;;;;;;;;;4955742;29;20271;-75
2021/03/14 12:57:24;;;;;;;9.18;1.30;;;;;;;;;;4955511;29;20179;-75
2021/03/14 13:02:57;;;;;;;1.00;0.77;;;;;;;;;;4955838;29;20213;-76
2021/03/14 13:05:25;;;;;;;3.60;1.10;;;;;;;;;;4956139;29;20244;-76
2021/03/14 13:07:53;;;;;;;2.60;1.40;;;;;;;;;;4955425;29;20182;-75
2021/03/14 13:10:19;;;;;;;3.90;1.83;;;;;;;;;;4955469;29;20251;-76
2021/03/14 13:12:45;;;;;;;3.73;1.50;;;;;;;;;;4956023;29;20207;-77
2021/03/14 13:15:12;;;;;;;3.57;1.60;;;;;;;;;;4955727;29;20921;-75
2021/03/14 13:17:38;;;;;;;3.63;1.30;;;;;;;;;;4955796;29;20446;-72
2021/03/14 13:20:05;;;;;;;1.50;0.85;;;;;;;;;;4955604;29;20288;-77
2021/03/14 13:22:31;;;;;;;4.05;1.60;;;;;;;;;;4955272;29;20163;-78
2021/03/14 13:24:58;;;;;;;1.77;1.40;;;;;;;;;;4955480;29;20173;-78
2021/03/14 13:27:24;;;;;;;3.35;1.50;;;;;;;;;;4955129;29;20939;-76
2021/03/14 13:32:53;;;;;;;1.50;1.40;;;;;;;;;;4955053;29;20241;-77
2021/03/14 13:35:19;;;;;;;2.45;0.93;;;;;;;;;;4954397;28;20281;-78
2021/03/14 13:37:45;;;;;;;1.50;0.80;;;;;;;;;;4954904;29;20172;-76
2021/03/14 13:40:11;;;;;;;1.33;1.08;;;;;;;;;;4955037;29;20173;-76
2021/03/14 13:42:37;;;;;;;2.83;1.70;;;;;;;;;;4954883;29;20249;-77
2021/03/14 13:48:07;;;;;;;2.60;1.35;;;;;;;;;;4954857;29;20202;-77
2021/03/14 13:50:33;;;;;;;3.08;1.15;;;;;;;;;;4954582;29;20245;-77
2021/03/14 13:52:59;;;;;;;1.77;0.90;;;;;;;;;;4955034;29;20201;-76
2021/03/14 13:55:25;;;;;;;1.48;1.10;;;;;;;;;;4954832;29;20238;-78
2021/03/14 13:57:51;;;;;;;3.33;1.40;;;;;;;;;;4954752;29;20202;-78
2021/03/14 14:00:19;;;;;;;2.60;1.00;;;;;;;;;;4954994;29;20179;-78
2021/03/14 14:02:46;;;;;;;2.17;0.93;;;;;;;;;;4954525;29;20168;-79
2021/03/14 14:05:12;;;;;;;7.85;1.55;;;;;;;;;;4955005;29;20178;-78
2021/03/14 14:07:39;;;;;;;2.25;1.20;;;;;;;;;;4955203;29;20182;-77
2021/03/14 14:10:06;;;;;;;1.30;1.00;;;;;;;;;;4954297;29;20232;-78
2021/03/14 14:12:32;;;;;;;7.18;2.03;;;;;;;;;;4954433;29;20182;-79
2021/03/14 14:18:02;;;;;;;1.63;1.30;;;;;;;;;;4954591;29;20839;-75
2021/03/14 14:20:30;;;;;;;2.67;1.45;;;;;;;;;;4952237;29;20317;-78
2021/03/14 14:22:58;;;;;;;1.90;1.42;;;;;;;;;;4953919;29;20178;-78
2021/03/14 14:25:29;;;;;;;3.97;1.63;;;;;;;;;;4953986;29;20183;-76
2021/03/14 14:27:57;;;;;;;4.68;2.10;;;;;;;;;;4953668;29;20176;-77
2021/03/14 14:33:26;;;;;;;2.05;1.10;;;;;;;;;;4954784;29;20246;-76
2021/03/14 14:35:53;;;;;;;2.03;0.60;;;;;;;;;;4952351;29;20576;-78
2021/03/14 14:38:20;;;;;;;1.60;0.80;;;;;;;;;;4905208;29;20917;-79
2021/03/14 14:40:47;;;;;;;1.65;1.02;;;;;;;;;;4954143;29;20179;-77
2021/03/14 14:43:13;;;;;;;0.75;0.60;;;;;;;;;;4954018;29;20276;-77
2021/03/14 14:45:39;;;;;;;0.82;0.40;;;;;;;;;;4954500;29;20273;-75
2021/03/14 14:48:06;;;;;;;4.10;0.80;;;;;;;;;;4952035;29;20209;-76
2021/03/14 14:50:33;;;;;;;1.60;0.90;;;;;;;;;;4953703;29;20422;-77
2021/03/14 14:53:00;;;;;;;0.90;0.90;;;;;;;;;;4953721;29;20182;-78
2021/03/14 14:55:26;;;;;;;1.67;1.20;;;;;;;;;;4953938;29;20183;-77
2021/03/14 14:57:53;;;;;;;1.58;1.10;;;;;;;;;;4953963;29;20198;-78
2021/03/14 15:03:22;;;;;;;0.43;0.43;;;;;;;;;;4953697;29;20665;-77
2021/03/14 15:05:48;;;;;;;0.50;0.40;;;;;;;;;;4953275;29;20162;-77
2021/03/14 15:08:14;;;;;;;0.57;0.57;;;;;;;;;;4953519;29;20489;-75
2021/03/14 15:10:40;;;;;;;0.50;0.50;;;;;;;;;;4953751;29;20183;-76
2021/03/14 15:13:06;;;;;;;0.60;0.43;;;;;;;;;;4953405;29;20432;-76
2021/03/14 15:18:37;;;;;;;1.50;0.90;;;;;;;;;;4954242;29;20660;-78
2021/03/14 15:21:03;;;;;;;1.00;0.80;;;;;;;;;;4954012;29;20174;-78
2021/03/14 15:23:29;;;;;;;0.60;0.57;;;;;;;;;;4953774;29;20165;-77
2021/03/14 15:25:55;;;;;;;0.97;0.60;;;;;;;;;;4954300;29;20245;-79
2021/03/14 15:28:21;;;;;;;1.00;0.68;;;;;;;;;;4954052;29;20511;-78
2021/03/14 15:30:47;;;;;;;1.50;0.87;;;;;;;;;;4953423;29;20228;-77
2021/03/14 15:33:13;;;;;;;0.70;0.70;;;;;;;;;;4951319;29;20565;-76
2021/03/14 15:35:39;;;;;;;0.73;0.70;;;;;;;;;;4952363;29;20252;-77
2021/03/14 15:38:05;;;;;;;1.23;1.00;;;;;;;;;;4952526;29;20894;-77
2021/03/14 15:40:31;;;;;;;0.97;0.80;;;;;;;;;;4952939;29;20428;-78
2021/03/14 15:42:57;;;;;;;2.55;1.10;;;;;;;;;;4952528;29;20460;-78
2021/03/14 15:48:27;;;;;;;1.00;0.90;;;;;;;;;;4952676;29;20440;-76
2021/03/14 15:50:53;;;;;;;1.25;1.08;;;;;;;;;;4952409;29;20194;-77
2021/03/14 15:53:19;;;;;;;1.30;1.20;;;;;;;;;;4952329;29;20205;-75
2021/03/14 15:55:45;;;;;;;0.70;0.70;;;;;;;;;;4952168;29;20169;-78
2021/03/14 15:58:11;;;;;;;1.23;0.80;;;;;;;;;;4952420;28;20246;-76
2021/03/14 16:03:41;;;;;;;1.20;1.10;;;;;;;;;;4955972;29;20769;-73
2021/03/14 16:06:07;;;;;;;2.70;1.40;;;;;;;;;;4955936;29;20170;-77
2021/03/14 16:08:35;;;;;;;1.42;1.25;;;;;;;;;;4956108;29;20698;-76
2021/03/14 16:11:01;;;;;;;1.63;1.50;;;;;;;;;;4955765;29;20184;-78
2021/03/14 16:13:27;;;;;;;2.30;1.40;;;;;;;;;;4955346;29;20222;-77
2021/03/14 16:15:53;;;;;;;2.78;1.90;;;;;;;;;;4955221;29;20174;-74
2021/03/14 16:18:23;;;;;;;1.42;1.33;;;;;;;;;;4956535;29;20628;-74
2021/03/14 16:20:49;;;;;;;2.03;1.85;;;;;;;;;;4956773;29;20218;-77